Time;durP1;ratioP1;P1;durP2;ratioP2;P2;SDS_P1;SDS_P2;PMS_P1;PMS_P2;Temp;Humidity;BMP_temperature;BMP_pressure;BME280_temperature;BME280_humidity;BME280_pressure;Samples;Min_cycle;Max_cycle;Signal;HPM_P1;HPM_P2
2022/03/04 00:03:59;;;;;;;68.30;34.60;;;-1.30;99.90;;;;;;21064660;28;20089;-55
2022/03/04 00:14:02;;;;;;;64.35;32.90;;;-1.10;99.90;;;;;;21016321;28;20079;-56
2022/03/04 00:24:08;;;;;;;66.60;32.97;;;-0.80;99.90;;;;;;20980208;28;20036;-56
2022/03/04 00:34:11;;;;;;;58.92;31.88;;;-0.50;99.90;;;;;;20982746;28;20086;-57
2022/03/04 00:44:14;;;;;;;59.03;29.70;;;-0.30;99.90;;;;;;20996314;28;20036;-54
2022/03/04 00:54:17;;;;;;;53.28;28.73;;;-0.10;99.90;;;;;;20995326;28;20549;-57
2022/03/04 01:04:19;;;;;;;62.63;29.70;;;0.10;99.90;;;;;;20994247;28;20040;-53
2022/03/04 01:14:22;;;;;;;57.95;29.13;;;-0.10;99.90;;;;;;21043820;28;20048;-54
2022/03/04 01:24:25;;;;;;;62.75;30.95;;;-0.20;99.90;;;;;;21076931;28;20028;-55
2022/03/04 01:34:28;;;;;;;59.55;30.05;;;-0.30;99.90;;;;;;21075592;28;20556;-53
2022/03/04 01:44:31;;;;;;;51.50;28.10;;;-0.50;99.90;;;;;;21074896;28;20089;-52
2022/03/04 01:54:34;;;;;;;63.17;31.25;;;-0.80;99.90;;;;;;21074314;28;20040;-56
2022/03/04 02:04:37;;;;;;;66.20;31.83;;;-1.10;99.90;;;;;;21073837;28;20036;-54
2022/03/04 02:14:39;;;;;;;71.28;34.15;;;-1.40;99.90;;;;;;21020454;28;20079;-56
2022/03/04 02:24:42;;;;;;;65.65;32.55;;;-1.70;99.90;;;;;;20989176;28;20097;-51
2022/03/04 02:34:46;;;;;;;68.38;33.60;;;-2.00;99.90;;;;;;20971633;28;20553;-54
2022/03/04 02:44:49;;;;;;;69.07;33.72;;;-2.20;99.90;;;;;;20987065;28;20033;-58
2022/03/04 02:54:51;;;;;;;63.28;30.85;;;-2.30;99.90;;;;;;20987082;28;20028;-57
2022/03/04 03:04:54;;;;;;;70.25;31.17;;;-2.50;99.90;;;;;;20984575;28;20439;-56
2022/03/04 03:14:56;;;;;;;83.93;37.13;;;-2.60;99.90;;;;;;21039132;28;20044;-55
2022/03/04 03:25:00;;;;;;;87.60;39.15;;;-2.70;99.90;;;;;;21068486;28;20109;-57
2022/03/04 03:35:02;;;;;;;78.20;37.80;;;-2.40;99.90;;;;;;21066677;28;20032;-55
2022/03/04 03:45:07;;;;;;;69.70;36.33;;;-2.00;99.90;;;;;;21066364;28;20040;-55
2022/03/04 03:55:10;;;;;;;84.68;39.83;;;-1.60;99.90;;;;;;21065386;28;20387;-58
2022/03/04 04:05:13;;;;;;;74.38;36.50;;;-1.40;99.90;;;;;;21064531;28;20035;-57
2022/03/04 04:15:15;;;;;;;74.43;37.00;;;-1.20;99.90;;;;;;21006312;28;20119;-56
2022/03/04 04:25:18;;;;;;;87.05;40.63;;;-1.30;99.90;;;;;;20980812;28;20040;-57
2022/03/04 04:35:21;;;;;;;86.63;41.92;;;-1.50;99.90;;;;;;20979877;28;20545;-56
2022/03/04 04:45:23;;;;;;;80.18;38.08;;;-1.30;99.90;;;;;;20979402;28;20090;-56
2022/03/04 04:55:26;;;;;;;77.57;39.13;;;-1.00;99.90;;;;;;20978861;28;20036;-56
2022/03/04 05:05:29;;;;;;;79.93;39.67;;;-0.90;99.90;;;;;;20978883;28;20040;-57
2022/03/04 05:15:32;;;;;;;78.43;38.28;;;-1.00;99.90;;;;;;21039050;28;20551;-57
2022/03/04 05:25:35;;;;;;;71.97;35.28;;;-1.20;99.90;;;;;;21072224;28;20433;-57
2022/03/04 05:35:37;;;;;;;84.65;41.58;;;-1.70;99.90;;;;;;21076367;28;20093;-56
2022/03/04 05:45:40;;;;;;;76.70;35.22;;;-2.10;99.90;;;;;;21075326;28;20036;-51
2022/03/04 05:55:43;;;;;;;70.57;34.70;;;-2.20;99.90;;;;;;21074778;28;20040;-54
2022/03/04 06:05:46;;;;;;;75.57;37.35;;;-2.20;99.90;;;;;;21074377;28;20180;-55
2022/03/04 06:15:48;;;;;;;71.72;35.28;;;-2.20;99.90;;;;;;21010901;28;20049;-52
2022/03/04 06:25:51;;;;;;;69.50;33.80;;;-2.10;99.90;;;;;;20988556;28;20458;-54
2022/03/04 06:35:54;;;;;;;65.65;32.20;;;-1.90;99.90;;;;;;20988119;28;20090;-56
2022/03/04 06:45:57;;;;;;;72.43;34.50;;;-1.70;99.90;;;;;;20987392;28;20028;-57
2022/03/04 06:56:00;;;;;;;68.78;33.22;;;-1.70;99.90;;;;;;20986818;28;20105;-56
2022/03/04 07:06:03;;;;;;;65.45;33.38;;;-1.40;99.90;;;;;;20986415;28;20645;-56
2022/03/04 07:16:06;;;;;;;68.40;33.05;;;-0.90;99.90;;;;;;21048768;28;20051;-57
2022/03/04 07:26:10;;;;;;;62.08;31.70;;;-0.20;99.90;;;;;;21067453;28;20101;-57
2022/03/04 07:36:12;;;;;;;48.33;26.73;;;0.60;99.90;;;;;;21066690;28;20039;-58
2022/03/04 07:46:15;;;;;;;43.50;22.85;;;1.70;99.90;;;;;;21065828;28;20387;-58
2022/03/04 07:56:18;;;;;;;43.88;24.25;;;2.60;99.90;;;;;;21065300;28;20109;-57
2022/03/04 08:06:20;;;;;;;44.78;24.55;;;3.70;99.90;;;;;;21064741;28;20419;-58
2022/03/04 08:16:24;;;;;;;49.45;25.13;;;4.70;99.90;;;;;;20996752;28;20504;-57
2022/03/04 08:26:27;;;;;;;42.65;23.77;;;5.30;99.90;;;;;;20981946;28;20037;-58
2022/03/04 08:36:32;;;;;;;41.60;25.38;;;5.80;99.90;;;;;;20981741;28;20408;-57
2022/03/04 08:46:36;;;;;;;43.45;25.10;;;6.70;99.90;;;;;;20980192;28;20045;-58
2022/03/04 08:56:38;;;;;;;45.85;25.98;;;7.50;99.90;;;;;;20983929;28;20041;-60
2022/03/04 09:06:41;;;;;;;42.92;25.75;;;8.00;99.10;;;;;;20995761;28;20078;-54
2022/03/04 09:16:43;;;;;;;49.30;24.88;;;7.90;96.90;;;;;;21063909;28;20918;-59
2022/03/04 09:26:46;;;;;;;47.38;25.45;;;8.60;95.70;;;;;;21077223;28;20066;-59
2022/03/04 09:36:49;;;;;;;43.95;24.10;;;9.00;94.70;;;;;;21076173;28;20093;-58
2022/03/04 09:46:53;;;;;;;50.20;29.92;;;9.20;93.00;;;;;;21075750;28;20028;-58
2022/03/04 09:56:57;;;;;;;44.22;24.88;;;9.30;91.50;;;;;;21074908;28;20058;-58
2022/03/04 10:07:14;;;;;;;42.63;24.63;;;8.70;94.60;;;;;;21073426;28;20036;-57
2022/03/04 10:17:18;;;;;;;47.80;27.85;;;8.80;92.50;;;;;;20997964;28;20098;-56
2022/03/04 10:27:21;;;;;;;46.65;26.65;;;7.90;93.70;;;;;;20988777;28;20169;-57
2022/03/04 10:37:50;;;;;;;49.28;26.23;;;7.20;94.60;;;;;;20971399;28;20032;-58
2022/03/04 10:47:57;;;;;;;46.85;26.92;;;6.70;95.60;;;;;;20987202;28;20041;-58
2022/03/04 10:58:02;;;;;;;49.80;27.17;;;6.40;95.90;;;;;;20986505;28;20093;-56
2022/03/04 11:08:06;;;;;;;45.65;25.92;;;6.00;96.20;;;;;;20985207;28;20040;-55
2022/03/04 11:18:11;;;;;;;46.80;26.42;;;5.50;97.20;;;;;;21065447;28;20448;-57
2022/03/04 11:28:18;;;;;;;48.42;26.85;;;4.70;98.50;;;;;;21067654;28;20058;-58
2022/03/04 11:38:49;;;;;;;47.40;27.08;;;4.40;99.90;;;;;;21068131;28;20483;-58
2022/03/04 11:49:29;;;;;;;47.80;26.30;;;4.60;99.90;;;;;;21066111;28;20039;-56
2022/03/04 11:59:31;;;;;;;52.95;27.38;;;5.00;99.90;;;;;;21065182;28;20040;-57
2022/03/04 12:09:34;;;;;;;45.65;25.55;;;4.60;99.90;;;;;;21054625;28;20043;-57
2022/03/04 12:19:36;;;;;;;44.30;23.77;;;4.20;99.90;;;;;;20981244;28;20143;-57
2022/03/04 12:29:50;;;;;;;36.15;20.30;;;4.30;99.90;;;;;;20983451;28;20051;-57
2022/03/04 12:39:53;;;;;;;35.78;19.48;;;4.30;99.90;;;;;;20997065;28;20037;-58
2022/03/04 12:49:59;;;;;;;32.17;16.85;;;4.20;99.90;;;;;;20980172;28;20071;-57
2022/03/04 13:00:03;;;;;;;32.53;15.20;;;4.20;98.30;;;;;;20979730;28;20479;-57
2022/03/04 13:10:07;;;;;;;25.88;13.20;;;4.30;97.80;;;;;;21009268;28;20040;-57
2022/03/04 13:20:10;;;;;;;21.20;11.68;;;4.20;98.00;;;;;;21077805;28;20069;-58
2022/03/04 13:30:13;;;;;;;21.15;12.13;;;3.90;98.80;;;;;;21077276;28;20432;-52
2022/03/04 13:40:18;;;;;;;20.95;11.52;;;3.00;99.90;;;;;;21075369;28;20035;-53
2022/03/04 13:50:29;;;;;;;22.92;12.70;;;2.30;99.90;;;;;;21075677;28;20426;-55
2022/03/04 14:00:34;;;;;;;21.63;11.95;;;2.40;99.90;;;;;;21075487;28;20089;-56
2022/03/04 14:10:38;;;;;;;18.08;10.75;;;3.40;99.90;;;;;;21055263;28;20037;-55
2022/03/04 14:20:43;;;;;;;17.95;9.57;;;4.00;99.70;;;;;;20989627;28;20450;-58
2022/03/04 14:30:47;;;;;;;15.43;9.02;;;3.80;99.90;;;;;;20988766;28;20029;-54
2022/03/04 14:40:50;;;;;;;19.23;8.35;;;4.40;95.40;;;;;;20987659;28;20044;-55
2022/03/04 14:50:53;;;;;;;16.27;8.75;;;3.90;95.80;;;;;;20987048;28;20086;-55
2022/03/04 15:00:59;;;;;;;15.80;8.93;;;3.50;96.20;;;;;;20984668;28;20569;-52
2022/03/04 15:11:01;;;;;;;14.98;8.20;;;3.10;96.20;;;;;;21006913;28;20036;-56
2022/03/04 15:21:04;;;;;;;13.55;8.05;;;2.80;96.00;;;;;;21067911;28;20036;-55
2022/03/04 15:31:06;;;;;;;15.40;8.00;;;2.50;95.50;;;;;;21050361;28;20036;-54
2022/03/04 15:41:10;;;;;;;16.30;8.38;;;2.30;97.00;;;;;;21067161;28;20048;-57
2022/03/04 15:51:13;;;;;;;14.43;8.30;;;2.20;95.90;;;;;;21066586;28;20502;-56
2022/03/04 16:01:16;;;;;;;14.52;7.88;;;2.20;96.50;;;;;;21064885;28;20089;-56
2022/03/04 16:11:18;;;;;;;15.23;8.48;;;2.00;96.40;;;;;;21039496;28;20056;-54
2022/03/04 16:21:24;;;;;;;13.40;7.72;;;1.80;96.90;;;;;;20980761;28;20140;-58
2022/03/04 16:31:27;;;;;;;16.98;9.05;;;1.40;96.60;;;;;;20980035;28;20036;-55
2022/03/04 16:41:31;;;;;;;18.00;9.32;;;0.90;97.30;;;;;;20979905;28;20040;-53
2022/03/04 16:51:34;;;;;;;17.42;8.77;;;0.30;98.20;;;;;;20979712;28;20036;-56
2022/03/04 17:01:40;;;;;;;16.60;8.80;;;-0.10;98.10;;;;;;20979081;28;20102;-56
2022/03/04 17:11:45;;;;;;;17.02;8.95;;;-0.20;98.60;;;;;;21006454;28;20074;-56
2022/03/04 17:21:47;;;;;;;16.73;8.48;;;-0.40;99.60;;;;;;21074059;28;20040;-56
2022/03/04 17:31:50;;;;;;;18.88;8.73;;;-0.60;99.80;;;;;;21076846;28;20180;-52
2022/03/04 17:41:53;;;;;;;21.48;10.30;;;-0.80;99.90;;;;;;21077421;28;20035;-57
2022/03/04 17:51:57;;;;;;;19.55;8.90;;;-1.00;99.90;;;;;;21058901;28;20427;-55
2022/03/04 18:01:59;;;;;;;19.25;8.75;;;-1.30;99.90;;;;;;21074490;28;20036;-57
2022/03/04 18:12:02;;;;;;;15.75;8.40;;;-1.80;99.90;;;;;;21042858;28;20529;-54
2022/03/04 18:22:09;;;;;;;20.08;7.90;;;-2.20;99.90;;;;;;20989140;28;20449;-56
2022/03/04 18:32:13;;;;;;;19.55;9.10;;;-2.40;99.90;;;;;;20989166;28;20105;-52
2022/03/04 18:42:16;;;;;;;19.58;8.18;;;-2.50;99.90;;;;;;20987312;28;20364;-56
2022/03/04 18:52:20;;;;;;;20.83;8.38;;;-2.70;99.90;;;;;;20970175;28;20040;-51
2022/03/04 19:02:23;;;;;;;17.65;8.38;;;-2.50;99.90;;;;;;20986100;28;20098;-54
2022/03/04 19:12:26;;;;;;;17.42;7.82;;;-2.50;99.90;;;;;;21018755;28;20040;-54
2022/03/04 19:22:29;;;;;;;19.15;8.65;;;-2.60;99.90;;;;;;21068241;28;20101;-55
2022/03/04 19:32:34;;;;;;;19.90;9.25;;;-2.60;99.90;;;;;;21068687;28;20135;-54
2022/03/04 19:42:38;;;;;;;20.17;9.05;;;-2.70;99.90;;;;;;21066016;28;20035;-56
2022/03/04 19:52:42;;;;;;;19.50;10.32;;;-2.70;99.90;;;;;;21066044;28;20040;-52
2022/03/04 20:02:45;;;;;;;16.23;8.30;;;-2.70;99.90;;;;;;21065952;28;20040;-53
2022/03/04 20:12:48;;;;;;;27.30;9.68;;;-2.70;99.90;;;;;;21028757;28;20044;-51
2022/03/04 20:22:51;;;;;;;21.05;9.23;;;-3.00;99.90;;;;;;20980567;28;20056;-55
2022/03/04 20:32:53;;;;;;;17.65;7.75;;;-3.00;99.90;;;;;;20980831;28;20036;-52
2022/03/04 20:42:56;;;;;;;19.75;9.75;;;-3.20;99.90;;;;;;20980191;28;20033;-54
2022/03/04 20:52:59;;;;;;;23.92;9.43;;;-3.20;99.90;;;;;;20986644;28;20037;-52
2022/03/04 21:03:03;;;;;;;19.42;8.75;;;-3.30;99.90;;;;;;20995323;28;20044;-55
2022/03/04 21:13:07;;;;;;;21.02;9.70;;;-3.40;99.90;;;;;;21034093;28;20052;-55
2022/03/04 21:23:10;;;;;;;18.00;9.38;;;-3.50;99.90;;;;;;21031431;28;20480;-54
2022/03/04 21:33:13;;;;;;;20.58;9.75;;;-3.60;99.90;;;;;;20993060;28;20033;-52
2022/03/04 21:43:15;;;;;;;23.25;10.15;;;-3.60;99.90;;;;;;20975958;28;20105;-54
2022/03/04 21:53:18;;;;;;;16.98;8.98;;;-3.50;99.90;;;;;;20991742;28;20803;-54
2022/03/04 22:03:21;;;;;;;21.15;9.45;;;-3.40;99.90;;;;;;20990250;28;20028;-56
2022/03/04 22:13:24;;;;;;;20.13;8.93;;;-3.10;99.90;;;;;;21031480;28;20048;-54
2022/03/04 22:23:27;;;;;;;19.80;9.70;;;-3.10;99.90;;;;;;21056501;28;20493;-54
2022/03/04 22:33:30;;;;;;;20.15;9.95;;;-3.20;99.90;;;;;;21072613;28;20420;-54
2022/03/04 22:43:32;;;;;;;17.77;8.85;;;-3.20;99.90;;;;;;21071354;28;20036;-56
2022/03/04 22:53:34;;;;;;;21.85;10.93;;;-3.00;99.90;;;;;;21053565;28;20085;-55
2022/03/04 23:14:01;;;;;;;21.13;9.30;;;-2.80;99.90;;;;;;21021037;28;20492;-56
2022/03/04 23:24:05;;;;;;;21.13;10.80;;;-2.90;99.90;;;;;;20984361;28;20098;-55
2022/03/04 23:34:09;;;;;;;19.42;10.23;;;-3.00;99.90;;;;;;20983426;28;20372;-54
2022/03/04 23:44:12;;;;;;;21.73;9.68;;;-3.00;99.90;;;;;;20983368;28;20040;-55
2022/03/04 23:54:15;;;;;;;21.50;9.90;;;-2.90;99.90;;;;;;20982394;28;20036;-54
